createdAt,value
2023-03-17T00:00:43.125Z,101686.95
2023-03-17T00:03:23.740Z,101692.15
2023-03-17T00:05:53.698Z,101694.23
2023-03-17T00:08:24.536Z,101692.66
2023-03-17T00:10:53.121Z,101690.08
2023-03-17T00:13:21.499Z,101688.69
2023-03-17T00:15:57.365Z,101684.87
2023-03-17T00:18:30.636Z,101687.29
2023-03-17T00:21:00.251Z,101684.70
2023-03-17T00:23:28.730Z,101689.90
2023-03-17T00:25:57.629Z,101689.04
2023-03-17T00:28:27.612Z,101693.70
2023-03-17T00:30:58.799Z,101691.63
2023-03-17T00:33:28.600Z,101688.68
2023-03-17T00:35:57.529Z,101695.96
2023-03-17T00:38:26.776Z,101694.22
2023-03-17T00:40:57.817Z,101693.36
2023-03-17T00:43:26.503Z,101694.20
2023-03-17T00:45:55.604Z,101693.00
2023-03-17T00:48:26.129Z,101700.63
2023-03-17T00:50:54.671Z,101698.88
2023-03-17T00:53:23.837Z,101700.43
2023-03-17T00:55:52.395Z,101699.73
2023-03-17T00:58:30.902Z,101703.03
2023-03-17T01:01:00.033Z,101699.40
2023-03-17T01:03:29.806Z,101709.95
2023-03-17T01:05:58.092Z,101710.65
2023-03-17T01:08:26.665Z,101706.48
2023-03-17T01:10:55.042Z,101706.84
2023-03-17T01:13:29.564Z,101707.52
2023-03-17T01:15:58.272Z,101707.88
2023-03-17T01:18:27.474Z,101714.45
2023-03-17T01:20:56.030Z,101713.92
2023-03-17T01:23:24.306Z,101714.61
2023-03-17T01:25:53.810Z,101714.27
2023-03-17T01:28:23.524Z,101715.83
2023-03-17T01:30:52.619Z,101720.49
2023-03-17T01:33:20.913Z,101724.14
2023-03-17T01:35:50.352Z,101726.90
2023-03-17T01:38:19.288Z,101725.69
2023-03-17T01:40:50.265Z,101728.63
2023-03-17T01:43:27.757Z,101727.59
2023-03-17T01:46:18.219Z,101729.67
2023-03-17T01:48:49.461Z,101731.40
2023-03-17T01:51:27.768Z,101732.44
2023-03-17T01:53:56.153Z,101736.92
2023-03-17T01:56:25.038Z,101739.17
2023-03-17T01:58:54.778Z,101744.38
2023-03-17T02:01:28.242Z,101741.78
2023-03-17T02:03:57.379Z,101740.91
2023-03-17T02:06:25.943Z,101740.73
2023-03-17T02:09:01.876Z,101751.27
2023-03-17T02:11:34.229Z,101750.07
2023-03-17T02:14:02.880Z,101749.02
2023-03-17T02:16:32.858Z,101746.77
2023-03-17T02:19:01.742Z,101756.61
2023-03-17T02:21:42.125Z,101754.20
2023-03-17T02:24:31.234Z,101760.09
2023-03-17T02:27:31.379Z,101761.83
2023-03-17T02:30:01.833Z,101765.80
2023-03-17T02:32:35.685Z,101768.21
2023-03-17T02:35:05.159Z,101773.58
2023-03-17T02:37:34.938Z,101769.94
2023-03-17T02:40:05.879Z,101776.35
2023-03-17T02:42:35.996Z,101778.61
2023-03-17T02:45:05.192Z,101777.39
2023-03-17T02:47:33.798Z,101777.90
2023-03-17T02:50:02.252Z,101781.02
2023-03-17T02:52:32.009Z,101781.88
2023-03-17T02:55:01.157Z,101783.77
2023-03-17T02:57:30.067Z,101791.71
2023-03-17T02:59:59.352Z,101784.45
2023-03-17T03:02:27.892Z,101787.23
2023-03-17T03:04:56.637Z,101793.10
2023-03-17T03:07:25.512Z,101791.89
2023-03-17T03:09:53.992Z,101791.36
2023-03-17T03:12:22.701Z,101791.19
2023-03-17T03:14:52.492Z,101798.81
2023-03-17T03:17:21.482Z,101798.64
2023-03-17T03:19:54.366Z,101808.30
2023-03-17T03:22:23.150Z,101807.95
2023-03-17T03:24:51.733Z,101807.45
2023-03-17T03:27:20.726Z,101805.36
2023-03-17T03:29:49.412Z,101806.39
2023-03-17T03:32:17.790Z,101816.10
2023-03-17T03:34:47.294Z,101816.27
2023-03-17T03:37:15.595Z,101814.38
2023-03-17T03:39:43.950Z,101814.35
2023-03-17T03:42:12.938Z,101822.13
2023-03-17T03:44:43.877Z,101828.69
2023-03-17T03:47:12.663Z,101827.14
2023-03-17T03:49:46.477Z,101832.84
2023-03-17T03:52:14.745Z,101834.94
2023-03-17T03:54:43.142Z,101837.69
2023-03-17T03:57:11.912Z,101842.02
2023-03-17T03:59:40.182Z,101845.13
2023-03-17T04:02:11.787Z,101844.27
2023-03-17T04:04:40.452Z,101841.83
2023-03-17T04:07:09.822Z,101839.07
2023-03-17T04:09:40.044Z,101839.73
2023-03-17T04:12:09.490Z,101840.78
2023-03-17T04:14:40.178Z,101841.66
2023-03-17T04:17:10.097Z,101844.08
2023-03-17T04:19:38.879Z,101846.86
2023-03-17T04:22:12.080Z,101846.17
2023-03-17T04:24:40.865Z,101841.66
2023-03-17T04:27:10.157Z,101851.52
2023-03-17T04:29:43.245Z,101852.40
2023-03-17T04:32:13.977Z,101855.50
2023-03-17T04:34:45.637Z,101857.41
2023-03-17T04:37:14.114Z,101855.86
2023-03-17T04:39:43.541Z,101857.77
2023-03-17T04:42:12.508Z,101855.17
2023-03-17T04:44:41.504Z,101856.20
2023-03-17T04:47:09.984Z,101854.46
2023-03-17T04:49:38.468Z,101858.44
2023-03-17T04:52:07.155Z,101859.83
2023-03-17T04:54:36.719Z,101866.05
2023-03-17T04:57:05.134Z,101874.35
2023-03-17T04:59:33.619Z,101874.17
2023-03-17T05:02:02.729Z,101875.91
2023-03-17T05:04:34.478Z,101878.31
2023-03-17T05:07:03.254Z,101881.23
2023-03-17T05:09:31.527Z,101883.14
2023-03-17T05:12:00.009Z,101891.59
2023-03-17T05:14:28.898Z,101897.33
2023-03-17T05:16:57.684Z,101899.73
2023-03-17T05:19:30.376Z,101901.27
2023-03-17T05:21:59.253Z,101902.31
2023-03-17T05:24:27.838Z,101910.45
2023-03-17T05:26:56.732Z,101912.34
2023-03-17T05:29:25.009Z,101910.79
2023-03-17T05:31:54.618Z,101912.35
2023-03-17T05:34:23.521Z,101911.45
2023-03-17T05:36:53.926Z,101911.79
2023-03-17T05:39:23.430Z,101910.79
2023-03-17T05:41:52.532Z,101915.46
2023-03-17T05:44:22.053Z,101915.35
2023-03-17T05:46:51.635Z,101920.05
2023-03-17T05:49:20.735Z,101921.46
2023-03-17T05:51:49.009Z,101922.66
2023-03-17T05:54:17.392Z,101922.48
2023-03-17T05:56:47.404Z,101929.05
2023-03-17T05:59:17.114Z,101932.15
2023-03-17T06:01:47.341Z,101928.35
2023-03-17T06:04:16.176Z,101928.20
2023-03-17T06:06:44.432Z,101929.21
2023-03-17T06:09:15.439Z,101925.90
2023-03-17T06:11:44.329Z,101925.23
2023-03-17T06:14:16.990Z,101924.36
2023-03-17T06:17:05.584Z,101929.73
2023-03-17T06:19:33.937Z,101925.42
2023-03-17T06:22:02.595Z,101931.16
2023-03-17T06:24:31.617Z,101935.17
2023-03-17T06:27:02.965Z,101934.51
2023-03-17T06:29:31.973Z,101934.68
2023-03-17T06:32:17.117Z,101939.68
2023-03-17T06:34:49.210Z,101943.85
2023-03-17T06:37:17.990Z,101945.27
2023-03-17T06:39:46.359Z,101949.20
2023-03-17T06:42:15.060Z,101949.35
2023-03-17T06:44:43.315Z,101955.08
2023-03-17T06:47:12.133Z,101958.59
2023-03-17T06:49:41.206Z,101966.16
2023-03-17T06:52:10.807Z,101964.08
2023-03-17T06:54:41.355Z,101972.73
2023-03-17T06:57:09.916Z,101964.41
2023-03-17T06:59:39.446Z,101969.79
2023-03-17T07:02:08.093Z,101970.48
2023-03-17T07:04:38.686Z,101967.02
2023-03-17T07:07:08.346Z,101974.12
2023-03-17T07:09:37.539Z,101976.90
2023-03-17T07:12:08.762Z,101977.11
2023-03-17T07:14:37.986Z,101975.22
2023-03-17T07:17:06.445Z,101980.08
2023-03-17T07:19:35.871Z,101976.95
2023-03-17T07:22:06.398Z,101975.39
2023-03-17T07:24:35.489Z,101975.75
2023-03-17T07:27:06.450Z,101971.95
2023-03-17T07:29:39.424Z,101973.86
2023-03-17T07:32:09.540Z,101977.52
2023-03-17T07:34:37.984Z,101981.84
2023-03-17T07:37:07.223Z,101979.25
2023-03-17T07:39:36.417Z,101974.59
2023-03-17T07:42:12.361Z,101972.02
2023-03-17T07:44:42.081Z,101970.47
2023-03-17T07:47:11.073Z,101967.89
2023-03-17T07:49:42.062Z,101972.91
2023-03-17T07:52:11.404Z,101979.33
2023-03-17T07:54:45.221Z,101981.21
2023-03-17T07:57:13.707Z,101979.66
2023-03-17T07:59:42.389Z,101985.02
2023-03-17T08:02:16.854Z,101988.67
2023-03-17T08:04:45.293Z,101987.27
2023-03-17T08:07:14.824Z,101990.41
2023-03-17T08:09:43.779Z,101993.04
2023-03-17T08:12:12.780Z,101990.45
2023-03-17T08:14:46.973Z,102000.14
2023-03-17T08:17:16.206Z,102001.73
2023-03-17T08:19:44.548Z,102001.91
2023-03-17T08:22:13.476Z,102004.67
2023-03-17T08:24:44.618Z,102004.34
2023-03-17T08:27:13.810Z,102005.55
2023-03-17T08:29:43.982Z,102004.18
2023-03-17T08:32:13.412Z,102003.67
2023-03-17T08:34:41.683Z,102001.95
2023-03-17T08:37:11.615Z,102000.56
2023-03-17T08:39:40.538Z,102000.74
2023-03-17T08:42:11.121Z,102002.48
2023-03-17T08:44:40.309Z,102005.98
2023-03-17T08:47:13.115Z,102006.14
2023-03-17T08:49:43.957Z,102009.60
2023-03-17T08:52:12.422Z,102009.61
2023-03-17T08:54:42.665Z,102008.23
2023-03-17T08:57:11.015Z,102003.90
2023-03-17T08:59:41.544Z,102003.38
2023-03-17T09:02:11.594Z,102004.08
2023-03-17T09:04:41.477Z,102011.02
2023-03-17T09:07:11.818Z,102013.45
2023-03-17T09:09:40.931Z,102012.40
2023-03-17T09:12:10.409Z,102016.23
2023-03-17T09:14:44.143Z,102017.60
2023-03-17T09:17:14.707Z,102011.71
2023-03-17T09:19:43.864Z,102015.87
2023-03-17T09:22:14.358Z,102009.97
2023-03-17T09:24:42.742Z,102013.27
2023-03-17T09:27:14.077Z,102009.45
2023-03-17T09:29:42.988Z,102003.56
2023-03-17T09:32:11.469Z,102007.90
2023-03-17T09:34:39.939Z,102008.58
2023-03-17T09:37:10.100Z,102010.84
2023-03-17T09:39:39.550Z,102015.20
2023-03-17T09:42:14.073Z,102017.81
2023-03-17T09:45:07.793Z,102020.75
2023-03-17T09:47:42.964Z,102019.55
2023-03-17T09:50:19.380Z,102024.41
2023-03-17T09:52:51.101Z,102025.09
2023-03-17T09:55:28.640Z,102023.37
2023-03-17T09:57:57.234Z,102025.80
2023-03-17T10:00:27.927Z,102022.16
2023-03-17T10:02:58.114Z,102030.31
2023-03-17T10:05:31.683Z,102029.27
2023-03-17T10:08:10.869Z,102026.83
2023-03-17T10:11:33.617Z,102027.88
2023-03-17T10:14:04.922Z,102027.71
2023-03-17T10:16:54.954Z,102025.45
2023-03-17T10:19:31.008Z,102022.52
2023-03-17T10:22:25.597Z,102024.41
2023-03-17T10:24:57.631Z,102020.60
2023-03-17T10:27:27.591Z,102017.81
2023-03-17T10:29:57.195Z,102014.17
2023-03-17T10:32:26.056Z,102013.83
2023-03-17T10:34:58.243Z,102010.70
2023-03-17T10:37:29.591Z,102014.52
2023-03-17T10:40:00.030Z,102012.61
2023-03-17T10:42:30.263Z,102011.90
2023-03-17T10:45:13.982Z,102016.59
2023-03-17T10:47:46.339Z,102011.73
2023-03-17T10:50:22.405Z,102009.64
2023-03-17T10:52:58.155Z,102007.38
2023-03-17T10:55:29.611Z,102002.00
2023-03-17T10:58:06.232Z,101996.80
2023-03-17T11:00:37.318Z,101992.81
2023-03-17T11:03:23.120Z,101992.98
2023-03-17T11:05:56.312Z,101989.51
2023-03-17T11:08:25.296Z,101991.41
2023-03-17T11:10:59.510Z,101990.35
2023-03-17T11:13:31.474Z,101990.69
2023-03-17T11:16:07.649Z,101993.28
2023-03-17T11:18:37.853Z,101995.71
2023-03-17T11:21:30.405Z,101990.67
2023-03-17T11:24:09.627Z,101990.34
2023-03-17T11:26:58.510Z,101989.28
2023-03-17T11:29:46.023Z,101989.27
2023-03-17T11:32:27.853Z,101989.60
2023-03-17T11:35:05.710Z,101991.16
2023-03-17T11:37:59.296Z,101984.72
2023-03-17T11:40:44.148Z,101985.56
2023-03-17T11:43:20.782Z,101984.65
2023-03-17T11:46:10.249Z,101984.64
2023-03-17T11:49:03.650Z,101992.44
2023-03-17T11:51:51.080Z,101987.41
2023-03-17T11:54:34.714Z,101990.17
2023-03-17T11:57:15.680Z,101988.10
2023-03-17T12:00:16.641Z,101983.75
2023-03-17T12:02:51.719Z,101980.95
2023-03-17T12:05:24.138Z,101982.66
2023-03-17T12:08:03.754Z,101981.23
2023-03-17T12:10:41.462Z,101987.59
2023-03-17T12:13:12.733Z,101987.52
2023-03-17T12:15:45.713Z,101981.75
2023-03-17T12:18:25.850Z,101988.16
2023-03-17T12:21:04.777Z,101989.52
2023-03-17T12:23:46.364Z,101998.34
2023-03-17T12:26:20.466Z,101999.22
2023-03-17T12:28:57.416Z,102003.23
2023-03-17T12:31:29.202Z,102012.27
2023-03-17T12:34:17.220Z,102021.86
2023-03-17T12:36:46.038Z,102022.94
2023-03-17T12:39:33.776Z,102021.23
2023-03-17T12:42:11.179Z,102021.95
2023-03-17T12:45:25.415Z,102020.77
2023-03-17T12:47:54.404Z,102024.80
2023-03-17T12:50:34.660Z,102024.96
2023-03-17T12:53:15.737Z,102031.23
2023-03-17T12:55:46.162Z,102035.39
2023-03-17T12:58:40.755Z,102034.86
2023-03-17T13:01:32.644Z,102037.62
2023-03-17T13:04:13.349Z,102034.99
2023-03-17T13:06:48.438Z,102033.45
2023-03-17T13:09:32.735Z,102034.20
2023-03-17T13:12:02.140Z,102033.35
2023-03-17T13:14:42.110Z,102032.65
2023-03-17T13:17:35.066Z,102030.38
2023-03-17T13:20:04.446Z,102036.46
2023-03-17T13:22:35.586Z,102038.36
2023-03-17T13:25:36.435Z,102035.58
2023-03-17T13:28:14.020Z,102039.92
2023-03-17T13:30:57.451Z,102042.34
2023-03-17T13:33:33.314Z,102044.29
2023-03-17T13:36:08.230Z,102043.44
2023-03-17T13:39:20.915Z,102048.66
2023-03-17T13:42:28.354Z,102046.39
2023-03-17T13:45:12.198Z,102047.61
2023-03-17T13:47:44.085Z,102043.09
2023-03-17T13:50:16.727Z,102044.82
2023-03-17T13:53:01.817Z,102043.45
2023-03-17T13:55:39.102Z,102043.11
2023-03-17T13:58:12.146Z,102039.30
2023-03-17T14:00:47.671Z,102042.44
2023-03-17T14:03:29.534Z,102042.96
2023-03-17T14:05:59.118Z,102044.52
2023-03-17T14:08:35.177Z,102050.27
2023-03-17T14:11:07.540Z,102050.96
2023-03-17T14:13:44.973Z,102055.13
2023-03-17T14:16:24.618Z,102058.45
2023-03-17T14:18:57.667Z,102057.94
2023-03-17T14:21:33.781Z,102062.11
2023-03-17T14:24:18.554Z,102063.51
2023-03-17T14:26:48.504Z,102065.58
2023-03-17T14:29:19.247Z,102070.45
2023-03-17T14:31:53.097Z,102069.58
2023-03-17T14:34:22.243Z,102070.29
2023-03-17T14:36:51.749Z,102073.76
2023-03-17T14:39:24.530Z,102071.52
2023-03-17T14:42:04.830Z,102070.80
2023-03-17T14:44:38.356Z,102075.33
2023-03-17T14:47:27.329Z,102075.85
2023-03-17T14:50:01.360Z,102083.14
2023-03-17T14:52:32.855Z,102083.50
2023-03-17T14:55:01.504Z,102087.68
2023-03-17T14:57:32.970Z,102082.29
2023-03-17T15:00:15.466Z,102080.56
2023-03-17T15:02:54.581Z,102076.58
2023-03-17T15:05:39.762Z,102081.62
2023-03-17T15:08:31.475Z,102085.43
2023-03-17T15:11:02.416Z,102081.61
2023-03-17T15:13:34.292Z,102085.27
2023-03-17T15:16:20.203Z,102089.09
2023-03-17T15:18:50.987Z,102088.77
2023-03-17T15:21:33.203Z,102094.13
2023-03-17T15:24:37.135Z,102095.70
2023-03-17T15:27:17.169Z,102095.53
2023-03-17T15:29:46.099Z,102093.78
2023-03-17T15:32:16.789Z,102096.21
2023-03-17T15:34:45.301Z,102099.16
2023-03-17T15:37:28.292Z,102101.24
2023-03-17T15:39:57.018Z,102099.85
2023-03-17T15:42:32.839Z,102104.20
2023-03-17T15:45:02.957Z,102105.58
2023-03-17T15:47:33.213Z,102106.45
2023-03-17T15:50:31.507Z,102104.89
2023-03-17T15:53:03.826Z,102109.23
2023-03-17T15:55:32.707Z,102103.32
2023-03-17T15:58:01.291Z,102103.32
2023-03-17T16:00:34.963Z,102106.79
2023-03-17T16:03:31.547Z,102109.73
2023-03-17T16:06:00.930Z,102116.66
2023-03-17T16:08:30.639Z,102117.53
2023-03-17T16:10:59.942Z,102117.19
2023-03-17T16:13:33.027Z,102118.23
2023-03-17T16:16:05.809Z,102115.98
2023-03-17T16:18:37.079Z,102118.05
2023-03-17T16:21:09.431Z,102119.27
2023-03-17T16:23:40.802Z,102121.35
2023-03-17T16:26:15.694Z,102123.60
2023-03-17T16:28:46.442Z,102131.92
2023-03-17T16:31:30.350Z,102130.54
2023-03-17T16:33:58.781Z,102135.04
2023-03-17T16:36:28.162Z,102134.34
2023-03-17T16:38:56.719Z,102136.77
2023-03-17T16:41:27.796Z,102142.51
2023-03-17T16:44:01.344Z,102148.04
2023-03-17T16:46:34.857Z,102154.98
2023-03-17T16:49:07.464Z,102148.04
2023-03-17T16:51:35.952Z,102148.19
2023-03-17T16:54:06.784Z,102154.92
2023-03-17T16:56:36.624Z,102158.90
2023-03-17T16:59:18.591Z,102164.45
2023-03-17T17:01:47.333Z,102162.37
2023-03-17T17:04:16.066Z,102161.67
2023-03-17T17:06:44.758Z,102161.49
2023-03-17T17:09:13.125Z,102162.02
2023-03-17T17:11:41.924Z,102161.32
2023-03-17T17:14:12.057Z,102156.64
2023-03-17T17:16:41.459Z,102158.55
2023-03-17T17:19:14.753Z,102161.32
2023-03-17T17:21:45.288Z,102162.70
2023-03-17T17:24:15.684Z,102165.83
2023-03-17T17:26:44.790Z,102168.23
2023-03-17T17:29:14.191Z,102165.98
2023-03-17T17:31:43.113Z,102167.37
2023-03-17T17:34:12.371Z,102169.10
2023-03-17T17:36:42.795Z,102171.88
2023-03-17T17:39:11.894Z,102172.06
2023-03-17T17:41:40.503Z,102172.05
2023-03-17T17:44:08.906Z,102177.43
2023-03-17T17:46:39.328Z,102178.46
2023-03-17T17:49:07.659Z,102185.03
2023-03-17T17:51:38.490Z,102180.70
2023-03-17T17:54:06.869Z,102183.63
2023-03-17T17:56:38.420Z,102190.36
2023-03-17T17:59:10.195Z,102190.52
2023-03-17T18:01:39.227Z,102188.23
2023-03-17T18:04:13.154Z,102189.60
2023-03-17T18:06:43.508Z,102190.63
2023-03-17T18:09:12.149Z,102186.45
2023-03-17T18:11:41.793Z,102191.81
2023-03-17T18:14:10.377Z,102191.61
2023-03-17T18:16:38.936Z,102187.80
2023-03-17T18:19:08.810Z,102187.27
2023-03-17T18:21:39.094Z,102181.71
2023-03-17T18:24:12.182Z,102180.33
2023-03-17T18:26:41.888Z,102180.31
2023-03-17T18:29:11.513Z,102182.73
2023-03-17T18:31:43.097Z,102184.11
2023-03-17T18:34:12.964Z,102183.27
2023-03-17T18:36:43.697Z,102189.33
2023-03-17T18:39:12.288Z,102185.34
2023-03-17T18:41:40.763Z,102190.36
2023-03-17T18:44:10.284Z,102191.07
2023-03-17T18:46:39.060Z,102186.58
2023-03-17T18:49:11.122Z,102190.37
2023-03-17T18:51:39.809Z,102190.37
2023-03-17T18:57:32.472Z,102193.00
2023-03-17T19:00:00.748Z,102196.45
2023-03-17T19:02:29.549Z,102193.67
2023-03-17T19:04:58.525Z,102198.36
2023-03-17T19:07:26.911Z,102202.34
2023-03-17T19:10:06.858Z,102205.11
2023-03-17T19:12:35.659Z,102204.43
2023-03-17T19:15:05.248Z,102208.75
2023-03-17T19:17:35.271Z,102205.66
2023-03-17T19:20:04.180Z,102206.85
2023-03-17T19:22:38.475Z,102206.33
2023-03-17T19:25:07.482Z,102208.92
2023-03-17T19:27:36.670Z,102207.00
2023-03-17T19:30:08.940Z,102203.16
2023-03-17T19:32:38.403Z,102203.33
2023-03-17T19:35:07.848Z,102198.63
2023-03-17T19:37:38.269Z,102201.91
2023-03-17T19:40:15.779Z,102204.31
2023-03-17T19:42:44.244Z,102201.02
2023-03-17T19:45:12.919Z,102197.89
2023-03-17T19:47:41.707Z,102202.91
2023-03-17T19:50:11.448Z,102202.73
2023-03-17T19:52:39.796Z,102199.08
2023-03-17T19:55:10.849Z,102195.95
2023-03-17T19:57:39.631Z,102199.21
2023-03-17T20:00:11.188Z,102196.10
2023-03-17T20:02:39.985Z,102191.77
2023-03-17T20:05:08.862Z,102191.60
2023-03-17T20:07:38.100Z,102192.27
2023-03-17T20:10:08.719Z,102188.98
2023-03-17T20:12:38.497Z,102191.05
2023-03-17T20:15:08.312Z,102187.40
2023-03-17T20:17:37.707Z,102183.08
2023-03-17T20:20:12.421Z,102183.58
2023-03-17T20:22:44.043Z,102184.61
2023-03-17T20:25:12.777Z,102184.94
2023-03-17T20:27:43.330Z,102188.73
2023-03-17T20:30:12.616Z,102180.95
2023-03-17T20:32:41.299Z,102180.77
2023-03-17T20:35:10.280Z,102181.47
2023-03-17T20:37:39.066Z,102179.91
2023-03-17T20:40:13.997Z,102180.08
2023-03-17T20:42:43.106Z,102177.81
2023-03-17T20:45:11.575Z,102177.81
2023-03-17T20:47:41.391Z,102177.29
2023-03-17T20:50:10.378Z,102178.66
2023-03-17T20:52:39.988Z,102178.30
2023-03-17T20:55:12.155Z,102178.48
2023-03-17T20:57:42.166Z,102178.48
2023-03-17T21:00:18.019Z,102173.45
2023-03-17T21:02:50.818Z,102174.30
2023-03-17T21:05:22.475Z,102177.41
2023-03-17T21:07:51.759Z,102173.94
2023-03-17T21:10:20.340Z,102169.79
2023-03-17T21:12:48.783Z,102169.79
2023-03-17T21:15:18.535Z,102169.61
2023-03-17T21:17:47.434Z,102171.88
2023-03-17T21:20:16.963Z,102168.74
2023-03-17T21:22:46.326Z,102168.56
2023-03-17T21:25:15.319Z,102168.55
2023-03-17T21:27:44.317Z,102165.09
2023-03-17T21:30:14.721Z,102165.95
2023-03-17T21:32:44.987Z,102163.73
2023-03-17T21:35:13.749Z,102160.46
2023-03-17T21:37:47.350Z,102157.52
2023-03-17T21:40:16.043Z,102158.91
2023-03-17T21:42:44.413Z,102159.74
2023-03-17T21:45:14.530Z,102156.80
2023-03-17T21:47:44.665Z,102155.95
2023-03-17T21:50:17.174Z,102155.78
2023-03-17T21:52:46.317Z,102157.02
2023-03-17T21:55:15.931Z,102157.71
2023-03-17T21:57:44.405Z,102157.35
2023-03-17T22:00:13.509Z,102164.61
2023-03-17T22:02:42.941Z,102164.63
2023-03-17T22:05:11.482Z,102164.63
2023-03-17T22:07:41.295Z,102164.27
2023-03-17T22:10:11.529Z,102163.21
2023-03-17T22:12:41.025Z,102166.17
2023-03-17T22:15:10.537Z,102169.46
2023-03-17T22:17:39.933Z,102166.16
2023-03-17T22:20:09.242Z,102167.89
2023-03-17T22:22:38.635Z,102171.86
2023-03-17T22:25:07.942Z,102167.54
2023-03-17T22:27:36.512Z,102176.02
2023-03-17T22:30:07.252Z,102172.22
2023-03-17T22:32:36.478Z,102174.14
2023-03-17T22:35:09.437Z,102174.14
2023-03-17T22:37:38.731Z,102179.49
2023-03-17T22:40:08.651Z,102178.63
2023-03-17T22:42:38.153Z,102175.65
2023-03-17T22:45:07.664Z,102184.63
2023-03-17T22:47:36.142Z,102181.16
2023-03-17T22:50:05.336Z,102182.88
2023-03-17T22:52:33.916Z,102179.94
2023-03-17T22:55:02.187Z,102177.85
2023-03-17T22:57:31.291Z,102176.63
2023-03-17T23:00:14.106Z,102177.14
2023-03-17T23:02:44.848Z,102179.04
2023-03-17T23:05:13.933Z,102182.84
2023-03-17T23:07:51.506Z,102179.21
2023-03-17T23:10:25.412Z,102180.27
2023-03-17T23:12:56.697Z,102175.08
2023-03-17T23:15:26.650Z,102172.66
2023-03-17T23:17:54.973Z,102171.96
2023-03-17T23:20:23.555Z,102169.72
2023-03-17T23:22:52.989Z,102171.62
2023-03-17T23:25:23.388Z,102166.45
2023-03-17T23:27:51.866Z,102166.78
2023-03-17T23:30:21.446Z,102160.89
2023-03-17T23:32:50.767Z,102164.88
2023-03-17T23:35:20.687Z,102158.10
2023-03-17T23:37:49.162Z,102158.61
2023-03-17T23:40:17.641Z,102154.98
2023-03-17T23:42:48.982Z,102158.96
2023-03-17T23:45:18.442Z,102159.11
2023-03-17T23:47:48.096Z,102162.03
2023-03-17T23:50:21.193Z,102160.82
2023-03-17T23:52:51.101Z,102160.84
2023-03-17T23:55:19.785Z,102154.28
2023-03-17T23:57:48.370Z,102153.06
